Time;durP1;ratioP1;P1;durP2;ratioP2;P2;SDS_P1;SDS_P2;PMS_P1;PMS_P2;Temp;Humidity;BMP_temperature;BMP_pressure;BME280_temperature;BME280_humidity;BME280_pressure;Samples;Min_cycle;Max_cycle;Signal;HPM_P1;HPM_P2
2023/07/31 00:01:24;;;;;;;6.73;2.40;;;;;;;21.39;48.37;98783.28;6906128;28;20232;-83
2023/07/31 00:04:46;;;;;;;5.70;2.27;;;;;;;21.27;48.71;98784.63;6904446;28;20322;-82
2023/07/31 00:08:09;;;;;;;4.50;2.10;;;;;;;21.39;48.42;98783.28;6900829;28;20274;-82
2023/07/31 00:11:30;;;;;;;4.57;2.30;;;;;;;21.20;49.21;98775.88;6905183;28;20270;-82
2023/07/31 00:14:52;;;;;;;3.47;2.20;;;;;;;21.18;48.84;98784.34;6910509;28;20773;-82
2023/07/31 00:18:14;;;;;;;2.43;2.10;;;;;;;21.27;48.16;98777.25;6899783;28;20228;-82
2023/07/31 00:21:35;;;;;;;5.87;2.43;;;;;;;21.19;48.71;98777.78;6894256;28;20315;-82
2023/07/31 00:24:59;;;;;;;7.93;2.47;;;;;;;20.56;49.65;98744.50;6900710;28;20209;-82
2023/07/31 00:28:21;;;;;;;4.00;2.30;;;;;;;21.00;49.43;98795.06;6897648;28;20208;-82
2023/07/31 00:31:42;;;;;;;3.63;2.20;;;;;;;21.06;49.31;98796.69;6899777;28;20235;-81
2023/07/31 00:35:04;;;;;;;6.10;2.50;;;;;;;20.67;50.21;98779.84;6898389;28;20255;-83
2023/07/31 00:38:26;;;;;;;4.03;2.30;;;;;;;20.36;51.30;98768.25;6880879;28;20356;-82
2023/07/31 00:41:49;;;;;;;3.20;2.20;;;;;;;20.37;51.40;98775.38;6898066;28;20228;-81
2023/07/31 00:45:10;;;;;;;3.53;2.50;;;;;;;20.31;51.76;98788.25;6897702;28;20236;-82
2023/07/31 00:48:33;;;;;;;3.17;2.20;;;;;;;20.37;52.02;98783.59;6902709;28;20253;-81
2023/07/31 00:51:57;;;;;;;6.73;3.03;;;;;;;20.26;51.89;98776.44;6919302;28;20311;-82
2023/07/31 00:55:19;;;;;;;6.20;2.30;;;;;;;19.90;52.89;98777.31;6918507;28;20204;-82
2023/07/31 00:58:41;;;;;;;4.10;2.30;;;;;;;20.18;52.54;98776.94;6896560;28;20298;-82
2023/07/31 01:02:03;;;;;;;6.97;3.07;;;;;;;19.60;53.82;98786.19;6898754;28;20728;-81
2023/07/31 01:05:31;;;;;;;5.27;2.93;;;;;;;20.13;52.62;98783.25;6900443;28;20581;-82
2023/07/31 01:09:00;;;;;;;4.47;2.53;;;;;;;20.41;51.76;98776.50;6899888;28;20298;-82
2023/07/31 01:12:21;;;;;;;4.07;2.53;;;;;;;20.10;52.86;98785.69;6900415;28;20590;-82
2023/07/31 01:15:44;;;;;;;2.87;2.23;;;;;;;20.12;53.47;98800.75;6899969;28;20304;-82
2023/07/31 01:19:07;;;;;;;4.57;2.57;;;;;;;20.30;52.76;98786.59;6894301;28;20296;-82
2023/07/31 01:22:55;;;;;;;6.80;2.40;;;;;;;19.98;53.46;98782.31;6905632;28;20319;-82
2023/07/31 01:26:20;;;;;;;2.80;2.60;;;;;;;19.97;53.28;98764.22;6904954;28;20703;-82
2023/07/31 01:29:46;;;;;;;5.70;2.80;;;;;;;19.90;53.50;98780.91;6904957;28;20264;-82
2023/07/31 01:33:09;;;;;;;2.50;2.30;;;;;;;19.75;53.44;98758.09;6905700;28;20200;-82
2023/07/31 01:36:31;;;;;;;4.80;2.60;;;;;;;19.66;54.21;98776.91;6928792;28;20672;-82
2023/07/31 01:39:53;;;;;;;6.23;2.53;;;;;;;19.11;55.40;98764.72;6931974;28;20243;-82
2023/07/31 01:43:15;;;;;;;8.00;2.73;;;;;;;18.71;56.61;98743.31;6931449;28;20291;-83
2023/07/31 01:46:37;;;;;;;4.07;2.70;;;;;;;19.10;56.05;98741.19;6932592;28;20254;-83
2023/07/31 01:49:58;;;;;;;4.07;3.30;;;;;;;18.86;56.47;98753.56;6932172;28;20710;-82
2023/07/31 01:53:22;;;;;;;4.20;2.47;;;;;;;18.94;56.71;98748.44;6933057;28;20215;-81
2023/07/31 01:56:44;;;;;;;5.67;2.70;;;;;;;19.08;56.61;98754.28;6932145;28;20204;-82
2023/07/31 02:00:08;;;;;;;4.73;2.57;;;;;;;19.36;55.25;98748.53;6933192;28;20290;-82
2023/07/31 02:03:30;;;;;;;3.47;2.30;;;;;;;19.93;53.34;98742.03;6933052;28;20220;-82
2023/07/31 02:06:51;;;;;;;3.97;2.67;;;;;;;19.93;52.72;98736.56;6933314;28;20223;-82
2023/07/31 02:10:12;;;;;;;5.23;2.27;;;;;;;20.21;52.27;98738.06;6933441;28;20690;-83
2023/07/31 02:13:34;;;;;;;2.67;2.20;;;;;;;19.95;53.12;98731.66;6907897;28;20230;-83
2023/07/31 02:16:57;;;;;;;4.20;2.53;;;;;;;19.92;53.28;98728.63;6907004;28;20670;-82
2023/07/31 02:20:18;;;;;;;4.87;2.47;;;;;;;20.18;52.31;98724.94;6907681;28;20224;-82
2023/07/31 02:23:40;;;;;;;2.93;1.90;;;;;;;20.37;51.45;98715.97;6903592;28;20319;-82
2023/07/31 02:27:01;;;;;;;4.70;2.47;;;;;;;20.49;51.00;98712.97;6933961;28;20255;-82
2023/07/31 02:30:23;;;;;;;2.93;2.30;;;;;;;20.28;51.38;98706.63;6934474;28;20231;-82
2023/07/31 02:33:45;;;;;;;2.33;2.10;;;;;;;20.01;52.08;98697.75;6931660;28;20720;-82
2023/07/31 02:37:07;;;;;;;2.67;2.40;;;;;;;19.20;53.76;98642.84;6930596;28;20290;-82
2023/07/31 02:40:29;;;;;;;5.00;2.70;;;;;;;18.73;56.00;98702.06;6933674;28;20250;-82
2023/07/31 02:43:50;;;;;;;4.27;2.53;;;;;;;19.75;53.61;98700.66;6935069;28;20319;-82
2023/07/31 02:47:12;;;;;;;3.87;2.50;;;;;;;19.92;52.44;98698.53;6934965;28;20230;-82
2023/07/31 02:50:34;;;;;;;4.93;2.80;;;;;;;20.19;52.13;98707.41;6938877;28;20230;-82
2023/07/31 02:53:56;;;;;;;4.57;2.60;;;;;;;20.30;51.64;98687.19;6927388;28;20289;-82
2023/07/31 02:57:17;;;;;;;5.87;2.77;;;;;;;20.26;52.62;98697.03;6925188;28;20266;-82
2023/07/31 03:00:43;;;;;;;4.40;2.60;;;;;;;20.16;52.59;98686.06;6926689;28;20303;-82
2023/07/31 03:04:04;;;;;;;2.97;2.43;;;;;;;19.83;53.55;98684.53;6925815;28;20748;-82
2023/07/31 03:07:28;;;;;;;2.90;2.43;;;;;;;19.68;53.33;98689.94;6925502;28;20315;-83
2023/07/31 03:10:57;;;;;;;3.90;2.50;;;;;;;19.74;53.04;98682.59;6925935;28;20231;-82
2023/07/31 03:14:18;;;;;;;4.10;2.40;;;;;;;19.79;52.53;98685.31;6925811;28;20318;-82
2023/07/31 03:17:40;;;;;;;3.47;2.60;;;;;;;19.54;53.05;98688.78;6915558;28;20696;-82
2023/07/31 03:21:01;;;;;;;2.67;2.40;;;;;;;19.49;53.48;98675.06;6897485;28;20256;-82
2023/07/31 03:24:24;;;;;;;7.97;2.50;;;;;;;19.71;52.71;98664.78;6905053;28;20638;-82
2023/07/31 03:27:46;;;;;;;2.90;2.20;;;;;;;20.22;51.88;98698.69;6923909;28;20664;-82
2023/07/31 03:31:08;;;;;;;3.33;2.60;;;;;;;19.57;53.21;98649.94;6924934;28;20228;-82
2023/07/31 03:34:31;;;;;;;3.10;2.23;;;;;;;20.15;52.25;98695.34;6908364;28;20568;-82
2023/07/31 03:37:53;;;;;;;4.50;2.90;;;;;;;20.25;52.26;98696.22;6895234;28;20202;-82
2023/07/31 03:41:16;;;;;;;6.67;2.93;;;;;;;19.43;54.76;98688.97;6897519;28;20282;-82
2023/07/31 03:44:37;;;;;;;5.17;2.60;;;;;;;19.35;55.32;98689.47;6897548;28;20323;-82
2023/07/31 03:47:59;;;;;;;5.23;3.10;;;;;;;19.21;56.27;98688.28;6896864;28;20282;-82
2023/07/31 03:51:20;;;;;;;7.30;3.00;;;;;;;18.64;57.38;98693.50;6897586;28;20256;-82
2023/07/31 03:54:44;;;;;;;3.40;2.53;;;;;;;19.06;57.25;98693.59;6898066;28;20292;-82
2023/07/31 03:58:07;;;;;;;8.27;2.70;;;;;;;19.65;54.36;98667.75;6896507;28;20213;-82
2023/07/31 04:01:28;;;;;;;2.87;2.40;;;;;;;19.98;53.10;98694.72;6896576;28;20364;-82
2023/07/31 04:04:50;;;;;;;6.80;2.37;;;;;;;19.87;53.46;98688.38;6897021;28;20738;-81
2023/07/31 04:08:11;;;;;;;5.07;2.67;;;;;;;19.11;53.04;98611.66;6896362;28;20214;-82
2023/07/31 04:11:33;;;;;;;5.20;2.40;;;;;;;20.30;50.99;98696.25;6896232;28;20326;-82
2023/07/31 04:14:55;;;;;;;5.80;2.60;;;;;;;20.47;50.43;98694.09;6896463;28;20216;-83
2023/07/31 04:18:17;;;;;;;3.97;2.47;;;;;;;20.59;49.65;98700.13;6896326;28;20287;-83
2023/07/31 04:21:38;;;;;;;3.40;2.40;;;;;;;20.31;49.93;98645.84;6896899;28;20800;-82
2023/07/31 04:25:00;;;;;;;3.63;2.30;;;;;;;20.18;50.91;98689.34;6895660;28;20264;-81
2023/07/31 04:28:21;;;;;;;3.20;2.30;;;;;;;20.23;50.74;98681.94;6894780;28;20263;-83
2023/07/31 04:31:44;;;;;;;5.23;2.57;;;;;;;19.87;52.00;98680.16;6903335;28;20604;-82
2023/07/31 04:35:06;;;;;;;4.70;2.40;;;;;;;20.28;50.35;98626.41;6899333;28;20247;-82
2023/07/31 04:38:28;;;;;;;4.57;2.50;;;;;;;20.76;48.87;98645.88;6916710;28;20568;-81
2023/07/31 04:41:49;;;;;;;3.20;2.43;;;;;;;21.13;48.65;98665.63;6920758;28;20330;-82
2023/07/31 04:45:11;;;;;;;3.87;2.63;;;;;;;20.94;49.22;98661.78;6921360;28;20251;-82
2023/07/31 04:48:34;;;;;;;2.77;2.27;;;;;;;20.87;49.63;98668.63;6920825;28;20339;-81
2023/07/31 04:51:55;;;;;;;2.57;2.37;;;;;;;21.04;49.62;98652.78;6917747;28;20314;-81
2023/07/31 04:55:17;;;;;;;2.43;2.20;;;;;;;20.90;49.35;98671.69;6921150;28;20275;-81
2023/07/31 04:58:38;;;;;;;3.97;2.50;;;;;;;20.83;50.50;98635.47;6927210;28;20292;-81
2023/07/31 05:02:00;;;;;;;3.17;2.00;;;;;;;21.51;49.29;98657.59;6923558;28;20255;-81
2023/07/31 05:05:23;;;;;;;3.67;2.40;;;;;;;21.07;50.86;98664.00;6923248;28;20803;-81
2023/07/31 05:08:44;;;;;;;2.73;2.33;;;;;;;21.33;50.38;98664.78;6894236;28;20291;-81
2023/07/31 05:12:06;;;;;;;3.47;2.43;;;;;;;21.02;50.23;98658.53;6895550;28;20371;-81
2023/07/31 05:15:28;;;;;;;4.30;2.53;;;;;;;21.56;48.77;98659.50;6894763;28;20255;-81
2023/07/31 05:18:50;;;;;;;3.77;2.47;;;;;;;21.34;48.67;98648.88;6894675;28;20299;-81
2023/07/31 05:22:12;;;;;;;3.07;2.43;;;;;;;21.79;47.17;98653.41;6895025;28;20370;-82
2023/07/31 05:25:34;;;;;;;3.90;2.40;;;;;;;21.92;46.99;98661.88;6894882;28;20591;-81
2023/07/31 05:28:55;;;;;;;4.13;2.40;;;;;;;22.00;46.42;98655.78;6894058;28;20251;-82
2023/07/31 05:32:17;;;;;;;5.93;2.67;;;;;;;21.99;46.08;98653.31;6895506;28;20323;-81
2023/07/31 05:35:38;;;;;;;4.47;2.40;;;;;;;22.44;45.45;98662.19;6895385;28;20278;-83
2023/07/31 05:39:06;;;;;;;4.20;2.50;;;;;;;22.51;45.02;98668.19;6894895;28;20220;-82
2023/07/31 05:42:27;;;;;;;3.83;2.30;;;;;;;22.39;44.39;98664.94;6894689;28;20326;-82
2023/07/31 05:45:49;;;;;;;3.60;2.23;;;;;;;22.71;43.94;98658.97;6893737;28;20298;-81
2023/07/31 05:49:10;;;;;;;3.87;2.43;;;;;;;23.13;43.23;98654.47;6894450;28;20232;-82
2023/07/31 05:52:32;;;;;;;4.00;2.13;;;;;;;22.55;43.67;98658.22;6893813;28;20320;-81
2023/07/31 05:55:55;;;;;;;5.53;2.33;;;;;;;23.03;43.06;98653.75;6895241;28;20766;-81
2023/07/31 05:59:17;;;;;;;4.23;2.40;;;;;;;23.14;43.06;98656.09;6881185;28;20254;-81
2023/07/31 06:02:38;;;;;;;3.40;2.23;;;;;;;23.50;42.38;98659.34;6886105;28;20811;-81
2023/07/31 06:06:00;;;;;;;5.10;2.40;;;;;;;22.91;42.91;98604.63;6893563;28;20314;-82
2023/07/31 06:09:21;;;;;;;3.50;2.10;;;;;;;23.13;43.30;98642.66;6903988;28;20220;-82
2023/07/31 06:12:44;;;;;;;2.63;2.00;;;;;;;23.08;43.18;98651.75;6898521;28;20234;-81
2023/07/31 06:16:06;;;;;;;3.87;2.40;;;;;;;22.74;43.56;98639.13;6898919;28;20228;-82
2023/07/31 06:19:27;;;;;;;5.87;2.63;;;;;;;22.55;44.22;98635.44;6898601;28;20205;-80
2023/07/31 06:22:49;;;;;;;3.43;2.43;;;;;;;22.58;44.53;98652.19;6898057;28;20259;-82
2023/07/31 06:26:10;;;;;;;4.37;2.30;;;;;;;22.85;44.09;98643.44;6896369;28;20377;-82
2023/07/31 06:29:33;;;;;;;3.37;2.37;;;;;;;22.82;43.90;98653.09;6896224;28;20305;-81
2023/07/31 06:32:54;;;;;;;5.20;2.30;;;;;;;23.71;43.09;98652.53;6895895;28;20287;-82
2023/07/31 06:36:16;;;;;;;5.03;2.70;;;;;;;23.64;42.56;98650.09;6894618;28;20257;-81
2023/07/31 06:39:38;;;;;;;2.93;2.20;;;;;;;23.78;42.18;98647.47;6893363;28;20781;-81
2023/07/31 06:42:59;;;;;;;3.60;1.93;;;;;;;23.86;42.48;98655.91;6894335;28;20201;-81
2023/07/31 06:46:22;;;;;;;3.07;2.47;;;;;;;24.46;40.65;98655.13;6893575;28;20241;-81
2023/07/31 06:49:44;;;;;;;4.70;2.80;;;;;;;23.91;42.30;98666.06;6886558;28;20248;-81
2023/07/31 06:53:05;;;;;;;3.03;2.17;;;;;;;23.97;41.92;98662.13;6898748;28;20246;-82
2023/07/31 06:56:27;;;;;;;4.40;2.27;;;;;;;24.17;41.93;98654.41;6896004;28;20686;-82
2023/07/31 06:59:49;;;;;;;3.23;2.47;;;;;;;23.45;43.10;98654.72;6896211;28;20890;-81
2023/07/31 07:03:14;;;;;;;4.80;2.30;;;;;;;23.78;42.71;98666.75;6893163;28;20261;-81
2023/07/31 07:06:37;;;;;;;2.87;2.00;;;;;;;25.17;40.27;98650.13;6893722;28;20220;-82
2023/07/31 07:09:59;;;;;;;3.50;2.07;;;;;;;25.80;39.29;98645.63;6893838;28;20262;-81
2023/07/31 07:13:21;;;;;;;5.03;2.30;;;;;;;25.53;40.07;98631.81;6895367;28;20222;-81
2023/07/31 07:16:42;;;;;;;6.37;2.57;;;;;;;25.14;40.19;98645.19;6893083;28;20249;-81
2023/07/31 07:20:06;;;;;;;3.97;2.33;;;;;;;26.25;38.14;98652.19;6893418;28;20316;-81
2023/07/31 07:23:29;;;;;;;8.63;2.60;;;;;;;25.49;39.61;98652.06;6893436;28;20215;-81
2023/07/31 07:26:50;;;;;;;6.80;2.47;;;;;;;26.06;38.55;98649.53;6893138;28;20710;-81
2023/07/31 07:30:12;;;;;;;6.57;2.60;;;;;;;26.08;39.32;98640.94;6893185;28;20278;-81
2023/07/31 07:33:33;;;;;;;5.70;2.70;;;;;;;25.90;39.09;98636.34;6893335;28;20221;-81
2023/07/31 07:36:56;;;;;;;5.87;2.70;;;;;;;26.19;37.84;98632.09;6872415;28;20302;-82
2023/07/31 07:40:18;;;;;;;3.57;2.20;;;;;;;25.64;39.49;98627.72;6866573;28;20311;-82
2023/07/31 07:43:39;;;;;;;6.93;2.97;;;;;;;25.58;40.01;98628.94;6868711;28;20218;-81
2023/07/31 07:47:01;;;;;;;4.00;2.53;;;;;;;25.27;39.25;98613.25;6866191;28;20212;-81
2023/07/31 07:50:22;;;;;;;3.73;2.30;;;;;;;25.42;38.85;98586.19;6866755;28;20233;-82
2023/07/31 07:53:45;;;;;;;4.53;2.63;;;;;;;26.16;37.14;98626.38;6866958;28;20601;-82
2023/07/31 07:57:07;;;;;;;3.47;2.67;;;;;;;26.13;37.56;98625.03;6865660;28;20707;-82
2023/07/31 08:00:28;;;;;;;3.73;2.20;;;;;;;27.01;36.50;98616.88;6877896;28;20601;-81
2023/07/31 08:03:51;;;;;;;6.43;2.40;;;;;;;26.97;36.66;98637.19;6891986;28;20216;-82
2023/07/31 08:07:12;;;;;;;5.03;2.33;;;;;;;26.84;36.90;98632.56;6891770;28;20693;-81
2023/07/31 08:10:36;;;;;;;4.77;2.40;;;;;;;27.02;36.66;98620.47;6892450;28;20232;-81
2023/07/31 08:13:57;;;;;;;4.90;2.67;;;;;;;27.22;36.55;98619.97;6898161;28;20259;-81
2023/07/31 08:17:19;;;;;;;3.97;2.30;;;;;;;27.00;35.87;98570.13;6902134;28;20224;-82
2023/07/31 08:20:40;;;;;;;4.50;2.40;;;;;;;26.90;36.14;98603.63;6892528;28;20311;-82
2023/07/31 08:24:02;;;;;;;5.13;2.60;;;;;;;27.25;35.45;98597.19;6892212;28;20298;-82
2023/07/31 08:27:25;;;;;;;2.90;2.47;;;;;;;27.71;35.15;98619.72;6892027;28;20212;-81
2023/07/31 08:30:46;;;;;;;4.07;2.30;;;;;;;27.77;34.32;98599.88;6891353;28;20317;-81
2023/07/31 08:34:08;;;;;;;6.77;2.90;;;;;;;27.30;36.28;98608.94;6891280;28;20212;-81
2023/07/31 08:37:29;;;;;;;5.50;2.53;;;;;;;28.48;33.35;98599.38;6891192;28;20354;-82
2023/07/31 08:40:51;;;;;;;5.47;2.73;;;;;;;26.89;35.50;98607.53;6891382;28;20236;-81
2023/07/31 08:44:14;;;;;;;5.23;3.30;;;;;;;27.17;35.38;98531.50;6890747;28;20283;-81
2023/07/31 08:47:36;;;;;;;4.70;2.77;;;;;;;28.06;34.26;98583.50;6890359;28;20232;-82
2023/07/31 08:50:57;;;;;;;4.40;2.53;;;;;;;26.87;35.45;98576.56;6890668;28;20771;-81
2023/07/31 08:54:19;;;;;;;7.63;3.30;;;;;;;26.95;34.93;98584.13;6890792;28;20347;-82
2023/07/31 08:57:41;;;;;;;5.67;3.07;;;;;;;27.33;34.47;98541.03;6891875;28;20299;-82
2023/07/31 09:01:05;;;;;;;3.90;2.53;;;;;;;28.30;33.52;98581.06;6895567;28;20306;-87
2023/07/31 09:04:27;;;;;;;3.33;2.37;;;;;;;26.93;35.31;98580.84;6891842;28;20237;-83
2023/07/31 09:07:49;;;;;;;4.57;2.60;;;;;;;27.10;34.31;98543.03;6894470;28;20229;-84
2023/07/31 09:11:10;;;;;;;5.70;3.00;;;;;;;28.30;33.31;98569.19;6898182;28;20265;-84
2023/07/31 09:14:32;;;;;;;4.20;2.70;;;;;;;28.86;33.08;98564.28;6898408;28;20201;-85
2023/07/31 09:18:01;;;;;;;4.43;2.50;;;;;;;28.68;32.48;98559.06;6898118;28;20276;-85
2023/07/31 09:21:23;;;;;;;3.23;2.23;;;;;;;27.84;34.85;98550.34;6898535;28;20283;-84
2023/07/31 09:24:45;;;;;;;4.93;2.67;;;;;;;27.80;34.21;98565.16;6897825;28;20315;-84
2023/07/31 09:28:08;;;;;;;4.33;2.63;;;;;;;28.01;34.81;98574.53;6893507;28;20248;-84
2023/07/31 09:31:33;;;;;;;4.00;2.73;;;;;;;28.28;33.57;98580.59;6899129;28;20256;-83
2023/07/31 09:34:56;;;;;;;3.70;2.43;;;;;;;27.82;33.87;98560.94;6897313;28;20201;-85
2023/07/31 09:38:18;;;;;;;6.03;2.50;;;;;;;27.52;34.03;98539.66;6893363;28;20210;-83
2023/07/31 09:41:40;;;;;;;6.83;2.87;;;;;;;28.61;33.13;98553.19;6901816;28;20247;-84
2023/07/31 09:45:08;;;;;;;3.53;2.60;;;;;;;28.61;32.87;98542.09;6905994;28;20220;-84
2023/07/31 09:48:30;;;;;;;5.70;3.03;;;;;;;28.15;33.96;98542.75;6898265;28;20637;-84
2023/07/31 09:51:53;;;;;;;6.17;3.17;;;;;;;27.80;33.98;98529.16;6898631;28;20224;-86
2023/07/31 09:55:14;;;;;;;4.20;2.63;;;;;;;27.04;35.22;98505.53;6898681;28;20202;-84
2023/07/31 09:58:36;;;;;;;7.33;2.90;;;;;;;27.29;34.74;98529.78;6899009;28;20208;-84
2023/07/31 10:01:58;;;;;;;3.93;2.70;;;;;;;28.04;34.39;98516.47;6901111;28;20701;-83
2023/07/31 10:05:20;;;;;;;6.30;2.97;;;;;;;28.24;33.04;98501.94;6902253;28;20224;-84
2023/07/31 10:08:44;;;;;;;4.30;2.50;;;;;;;28.35;34.56;98508.81;6900994;28;20666;-82
2023/07/31 10:12:09;;;;;;;5.60;2.70;;;;;;;27.59;34.92;98512.28;6903267;28;20224;-82
2023/07/31 10:15:31;;;;;;;6.37;2.70;;;;;;;26.71;35.85;98507.00;6901690;28;20215;-82
2023/07/31 10:18:53;;;;;;;4.53;2.53;;;;;;;26.76;35.86;98497.72;6900884;28;20762;-83
2023/07/31 10:22:15;;;;;;;4.53;2.83;;;;;;;26.85;35.76;98491.09;6902291;28;20247;-82
2023/07/31 10:25:39;;;;;;;5.60;2.77;;;;;;;27.83;35.25;98498.84;6901021;28;20229;-82
2023/07/31 10:29:01;;;;;;;3.70;2.80;;;;;;;27.85;34.16;98452.19;6901753;28;20248;-83
2023/07/31 10:32:23;;;;;;;6.67;2.87;;;;;;;29.19;31.53;98492.34;6903363;28;20706;-83
2023/07/31 10:35:45;;;;;;;7.33;3.03;;;;;;;29.51;32.22;98502.78;6904412;28;20253;-83
2023/07/31 10:39:35;;;;;;;3.80;2.30;;;;;;;29.02;32.24;98484.88;6905840;28;20201;-83
2023/07/31 10:42:58;;;;;;;4.90;2.90;;;;;;;28.96;32.28;98469.56;6900858;28;20227;-83
2023/07/31 10:46:20;;;;;;;3.93;2.40;;;;;;;29.76;31.57;98469.31;6895633;28;20283;-83
2023/07/31 10:49:41;;;;;;;3.93;2.80;;;;;;;29.70;31.75;98461.50;6901700;28;20246;-83
2023/07/31 10:53:03;;;;;;;6.03;2.70;;;;;;;29.71;31.43;98482.63;6923862;28;20297;-83
2023/07/31 10:56:26;;;;;;;4.70;2.83;;;;;;;30.04;31.26;98464.03;6921220;28;20559;-83
2023/07/31 10:59:50;;;;;;;5.97;2.70;;;;;;;29.98;31.30;98470.97;6921829;28;20257;-83
2023/07/31 11:03:13;;;;;;;4.67;2.57;;;;;;;28.72;31.71;98437.94;6910440;28;20590;-82
2023/07/31 11:06:37;;;;;;;4.50;2.53;;;;;;;29.20;31.89;98477.31;6895361;28;20780;-83
2023/07/31 11:09:59;;;;;;;6.40;2.70;;;;;;;29.41;30.66;98467.88;6896131;28;20243;-82
2023/07/31 11:13:20;;;;;;;5.37;2.67;;;;;;;29.44;31.42;98461.66;6894831;28;20293;-83
2023/07/31 11:16:43;;;;;;;5.20;2.60;;;;;;;30.57;29.54;98442.63;6895818;28;20289;-83
2023/07/31 11:20:06;;;;;;;5.03;2.67;;;;;;;30.22;30.37;98455.25;6894696;28;20354;-83
2023/07/31 11:23:28;;;;;;;3.00;2.70;;;;;;;30.41;30.22;98454.72;6893681;28;20215;-82
2023/07/31 11:26:51;;;;;;;4.37;3.10;;;;;;;29.81;30.81;98446.91;6893199;28;20324;-82
2023/07/31 11:30:13;;;;;;;7.67;3.07;;;;;;;30.22;30.54;98451.66;6894203;28;20238;-83
2023/07/31 11:33:36;;;;;;;3.70;2.93;;;;;;;30.23;30.35;98456.06;6894433;28;20300;-83
2023/07/31 11:36:57;;;;;;;4.60;2.90;;;;;;;29.01;31.25;98438.84;6874114;28;20241;-83
2023/07/31 11:40:19;;;;;;;5.03;3.10;;;;;;;29.07;31.11;98436.69;6893155;28;20371;-83
2023/07/31 11:43:41;;;;;;;3.60;2.60;;;;;;;28.82;31.49;98427.28;6893876;28;20219;-83
2023/07/31 11:47:04;;;;;;;4.10;2.97;;;;;;;29.21;32.18;98440.06;6893699;28;20216;-83
2023/07/31 11:50:29;;;;;;;5.53;3.33;;;;;;;28.84;31.90;98438.06;6892786;28;20548;-83
2023/07/31 11:53:52;;;;;;;4.00;2.97;;;;;;;28.37;32.73;98441.94;6892648;28;20201;-82
2023/07/31 11:57:14;;;;;;;8.27;3.03;;;;;;;29.05;32.62;98434.25;6891805;28;20316;-83
2023/07/31 12:00:35;;;;;;;5.33;2.83;;;;;;;28.37;32.79;98434.44;6892039;28;20321;-83
2023/07/31 12:03:57;;;;;;;6.20;3.20;;;;;;;27.92;33.51;98413.75;6891787;28;20220;-82
2023/07/31 12:07:20;;;;;;;5.40;2.70;;;;;;;28.10;33.81;98425.63;6890848;28;20224;-82
2023/07/31 12:10:42;;;;;;;6.67;2.90;;;;;;;29.07;32.04;98415.28;6867780;28;20389;-82
2023/07/31 12:14:05;;;;;;;5.33;3.00;;;;;;;28.92;32.58;98406.69;6887946;28;20706;-82
2023/07/31 12:17:26;;;;;;;6.57;2.90;;;;;;;28.90;33.06;98406.22;6892423;28;20204;-83
2023/07/31 12:20:49;;;;;;;5.07;3.10;;;;;;;28.71;33.71;98378.06;6894048;28;20335;-83
2023/07/31 12:24:12;;;;;;;7.10;3.13;;;;;;;28.83;32.80;98397.59;6893427;28;20208;-83
2023/07/31 12:27:35;;;;;;;5.17;3.17;;;;;;;28.68;33.49;98390.63;6892079;28;20315;-83
2023/07/31 12:30:58;;;;;;;4.00;2.77;;;;;;;28.73;32.88;98382.09;6893264;28;20614;-83
2023/07/31 12:34:21;;;;;;;5.63;2.97;;;;;;;28.90;32.86;98382.03;6877029;28;20212;-83
2023/07/31 12:37:43;;;;;;;6.60;3.03;;;;;;;28.52;33.10;98389.53;6864159;28;20208;-83
2023/07/31 12:41:06;;;;;;;4.33;2.80;;;;;;;28.86;32.73;98374.69;6864877;28;20311;-83
2023/07/31 12:44:28;;;;;;;4.60;2.80;;;;;;;28.75;32.81;98371.50;6863454;28;20276;-84
2023/07/31 12:47:50;;;;;;;6.33;3.00;;;;;;;28.69;33.28;98366.44;6861982;28;20276;-84
2023/07/31 12:51:11;;;;;;;7.43;2.90;;;;;;;28.71;33.38;98347.53;6867787;28;20232;-84
2023/07/31 12:54:35;;;;;;;3.60;2.73;;;;;;;28.09;33.84;98355.53;6891582;28;20216;-82
2023/07/31 12:57:58;;;;;;;4.87;3.33;;;;;;;28.11;34.06;98331.06;6889224;28;20714;-83
2023/07/31 13:01:19;;;;;;;4.33;2.93;;;;;;;27.66;34.21;98288.22;6889136;28;20312;-84
2023/07/31 13:04:41;;;;;;;6.07;3.33;;;;;;;27.81;35.41;98348.72;6890269;28;20356;-83
2023/07/31 13:08:02;;;;;;;3.03;2.73;;;;;;;27.98;35.09;98337.63;6889327;28;20324;-81
2023/07/31 13:11:24;;;;;;;4.30;2.77;;;;;;;28.11;34.62;98321.91;6889340;28;20238;-83
2023/07/31 13:14:47;;;;;;;3.57;2.93;;;;;;;28.05;35.34;98332.38;6889403;28;20366;-85
2023/07/31 13:18:08;;;;;;;5.57;3.30;;;;;;;28.27;35.01;98328.56;6888510;28;20597;-83
2023/07/31 13:21:30;;;;;;;6.93;3.17;;;;;;;28.54;33.55;98309.56;6893542;28;20585;-83
2023/07/31 13:24:51;;;;;;;5.27;3.30;;;;;;;28.03;35.09;98298.63;6892431;28;20216;-83
2023/07/31 13:28:13;;;;;;;6.10;3.57;;;;;;;28.39;34.53;98318.44;6892757;28;20306;-84
2023/07/31 13:31:36;;;;;;;5.27;3.10;;;;;;;28.17;34.36;98315.88;6893240;28;20381;-84
2023/07/31 13:34:57;;;;;;;4.23;3.43;;;;;;;28.12;34.46;98315.22;6896008;28;20206;-84
2023/07/31 13:38:19;;;;;;;42.70;38.20;;;;;;;28.32;34.32;98315.31;6893188;28;20686;-83
2023/07/31 13:41:40;;;;;;;5.30;2.70;;;;;;;28.08;34.36;98301.19;6894130;28;20274;-83
2023/07/31 13:45:02;;;;;;;3.70;2.93;;;;;;;27.91;33.97;98294.91;6868652;28;20211;-83
2023/07/31 13:48:25;;;;;;;5.90;3.13;;;;;;;28.31;35.03;98304.56;6868511;28;20236;-83
2023/07/31 13:51:46;;;;;;;4.67;3.30;;;;;;;28.61;34.02;98303.50;6891606;28;20229;-83
2023/07/31 13:55:08;;;;;;;7.60;3.50;;;;;;;28.83;32.96;98295.69;6893670;28;20278;-84
2023/07/31 13:58:30;;;;;;;3.77;2.83;;;;;;;29.10;32.15;98281.34;6894214;28;20209;-83
2023/07/31 14:01:51;;;;;;;4.10;2.97;;;;;;;28.89;32.99;98302.69;6892902;28;20271;-83
2023/07/31 14:05:14;;;;;;;6.63;3.20;;;;;;;28.71;33.41;98295.59;6893650;28;20299;-83
2023/07/31 14:08:36;;;;;;;3.90;3.00;;;;;;;28.81;32.64;98292.44;6892717;28;20304;-82
2023/07/31 14:11:57;;;;;;;6.33;3.47;;;;;;;28.89;33.37;98283.25;6894082;28;20262;-83
2023/07/31 14:15:19;;;;;;;5.83;2.83;;;;;;;29.65;32.22;98276.34;6894874;28;20255;-83
2023/07/31 14:18:40;;;;;;;4.80;3.30;;;;;;;29.73;31.75;98282.97;6893649;28;20259;-83
2023/07/31 14:22:04;;;;;;;4.23;3.40;;;;;;;30.05;32.39;98282.97;6895607;28;20728;-83
2023/07/31 14:25:25;;;;;;;3.87;2.97;;;;;;;29.86;33.05;98256.84;6896520;28;20222;-83
2023/07/31 14:28:47;;;;;;;7.20;3.47;;;;;;;29.57;32.42;98281.97;6896915;28;20299;-82
2023/07/31 14:32:09;;;;;;;7.17;3.10;;;;;;;29.62;32.37;98279.81;6895821;28;20228;-83
2023/07/31 14:35:30;;;;;;;5.07;3.33;;;;;;;29.54;32.71;98275.13;6896189;28;20240;-83
2023/07/31 14:38:53;;;;;;;5.60;3.00;;;;;;;29.75;32.05;98264.81;6893366;28;20225;-82
2023/07/31 14:42:16;;;;;;;4.10;3.13;;;;;;;29.84;32.20;98267.50;6899860;28;20288;-82
2023/07/31 14:45:37;;;;;;;4.80;2.97;;;;;;;29.19;33.83;98246.00;6902635;28;20237;-83
2023/07/31 14:48:59;;;;;;;4.13;2.90;;;;;;;29.88;32.90;98237.84;6883944;28;20236;-82
2023/07/31 14:52:21;;;;;;;5.13;3.40;;;;;;;29.55;33.61;98256.50;6880494;28;20231;-82
2023/07/31 14:55:43;;;;;;;5.23;3.20;;;;;;;29.74;33.78;98240.94;6872593;28;20212;-83
2023/07/31 14:59:05;;;;;;;3.97;2.73;;;;;;;29.35;33.19;98219.22;6901758;28;20235;-82
2023/07/31 15:02:27;;;;;;;5.20;3.10;;;;;;;29.21;33.58;98237.31;6896572;28;20237;-83
2023/07/31 15:05:48;;;;;;;5.07;2.80;;;;;;;29.26;33.80;98243.47;6894295;28;20257;-82
2023/07/31 15:09:10;;;;;;;3.23;2.60;;;;;;;29.72;33.15;98245.22;6894012;28;20216;-83
2023/07/31 15:12:33;;;;;;;4.57;3.10;;;;;;;29.38;34.03;98237.97;6893786;28;20779;-82
2023/07/31 15:15:55;;;;;;;4.50;3.10;;;;;;;29.93;33.10;98237.63;6894207;28;20336;-82
2023/07/31 15:19:17;;;;;;;3.50;3.20;;;;;;;30.15;33.32;98234.44;6895447;28;20230;-83
2023/07/31 15:22:38;;;;;;;4.73;2.83;;;;;;;30.35;31.83;98216.84;6894922;28;20234;-82
2023/07/31 15:26:00;;;;;;;4.30;2.80;;;;;;;29.71;32.33;98216.59;6894099;28;20233;-82
2023/07/31 15:29:23;;;;;;;4.13;3.13;;;;;;;29.48;33.13;98220.91;6895875;28;20267;-83
2023/07/31 15:32:48;;;;;;;3.37;3.03;;;;;;;29.17;33.77;98209.44;6922067;28;20263;-82
2023/07/31 15:36:09;;;;;;;5.03;3.10;;;;;;;29.34;33.05;98194.56;6921781;28;20204;-83
2023/07/31 15:39:31;;;;;;;3.73;2.77;;;;;;;28.65;34.48;98193.47;6920934;28;20235;-82
2023/07/31 15:42:52;;;;;;;8.93;3.33;;;;;;;28.94;33.48;98188.69;6905970;28;20337;-83
2023/07/31 15:46:15;;;;;;;3.07;2.70;;;;;;;29.21;33.20;98188.16;6891839;28;20287;-82
2023/07/31 15:49:37;;;;;;;4.73;3.10;;;;;;;29.37;33.01;98194.69;6892373;28;20253;-82
2023/07/31 15:52:58;;;;;;;3.60;3.00;;;;;;;29.52;33.24;98165.44;6891478;28;20209;-82